sensor_id;sensor_type;location;lat;lon;timestamp;P1;durP1;ratioP1;P2;durP2;ratioP2
65358;SDS011;52491;45.900;6.346;2023-04-01T00:00:05;25.50;;;20.17;;
65358;SDS011;52491;45.900;6.346;2023-04-01T00:02:31;25.90;;;21.33;;
65358;SDS011;52491;45.900;6.346;2023-04-01T00:04:57;24.92;;;18.63;;
65358;SDS011;52491;45.900;6.346;2023-04-01T00:07:23;22.65;;;17.98;;
65358;SDS011;52491;45.900;6.346;2023-04-01T00:09:48;25.90;;;19.40;;
65358;SDS011;52491;45.900;6.346;2023-04-01T00:12:14;27.23;;;19.13;;
65358;SDS011;52491;45.900;6.346;2023-04-01T00:14:39;22.00;;;17.52;;
65358;SDS011;52491;45.900;6.346;2023-04-01T00:17:05;25.45;;;20.10;;
65358;SDS011;52491;45.900;6.346;2023-04-01T00:19:31;23.67;;;17.33;;
65358;SDS011;52491;45.900;6.346;2023-04-01T00:21:57;23.15;;;16.63;;
65358;SDS011;52491;45.900;6.346;2023-04-01T00:24:23;21.73;;;16.30;;
65358;SDS011;52491;45.900;6.346;2023-04-01T00:26:49;19.27;;;15.90;;
65358;SDS011;52491;45.900;6.346;2023-04-01T00:29:14;20.60;;;16.80;;
65358;SDS011;52491;45.900;6.346;2023-04-01T00:31:40;21.30;;;16.08;;
65358;SDS011;52491;45.900;6.346;2023-04-01T00:34:05;24.45;;;18.17;;
65358;SDS011;52491;45.900;6.346;2023-04-01T00:36:31;22.38;;;15.45;;
65358;SDS011;52491;45.900;6.346;2023-04-01T00:38:57;21.30;;;15.70;;
65358;SDS011;52491;45.900;6.346;2023-04-01T00:41:24;21.40;;;15.13;;
65358;SDS011;52491;45.900;6.346;2023-04-01T00:43:51;18.33;;;14.75;;
65358;SDS011;52491;45.900;6.346;2023-04-01T00:46:17;19.08;;;14.30;;
65358;SDS011;52491;45.900;6.346;2023-04-01T00:48:45;18.88;;;14.63;;
65358;SDS011;52491;45.900;6.346;2023-04-01T00:51:25;17.10;;;12.95;;
65358;SDS011;52491;45.900;6.346;2023-04-01T00:53:54;17.85;;;14.65;;
65358;SDS011;52491;45.900;6.346;2023-04-01T00:56:22;21.83;;;15.68;;
65358;SDS011;52491;45.900;6.346;2023-04-01T00:58:59;13.95;;;11.38;;
65358;SDS011;52491;45.900;6.346;2023-04-01T01:01:28;20.08;;;14.25;;
65358;SDS011;52491;45.900;6.346;2023-04-01T01:03:56;15.07;;;12.38;;
65358;SDS011;52491;45.900;6.346;2023-04-01T01:11:42;13.55;;;10.95;;
65358;SDS011;52491;45.900;6.346;2023-04-01T01:16:55;14.10;;;11.65;;
65358;SDS011;52491;45.900;6.346;2023-04-01T01:22:33;12.52;;;10.40;;
65358;SDS011;52491;45.900;6.346;2023-04-01T01:26:09;16.45;;;11.40;;
65358;SDS011;52491;45.900;6.346;2023-04-01T01:30:38;13.15;;;11.02;;
65358;SDS011;52491;45.900;6.346;2023-04-01T01:33:12;11.73;;;9.57;;
65358;SDS011;52491;45.900;6.346;2023-04-01T01:35:47;14.25;;;10.55;;
65358;SDS011;52491;45.900;6.346;2023-04-01T01:38:16;12.82;;;9.32;;
65358;SDS011;52491;45.900;6.346;2023-04-01T01:40:47;13.35;;;10.15;;
65358;SDS011;52491;45.900;6.346;2023-04-01T01:43:20;11.15;;;8.93;;
65358;SDS011;52491;45.900;6.346;2023-04-01T01:45:52;12.35;;;8.77;;
65358;SDS011;52491;45.900;6.346;2023-04-01T01:48:21;10.95;;;8.80;;
65358;SDS011;52491;45.900;6.346;2023-04-01T01:50:50;10.50;;;8.60;;
65358;SDS011;52491;45.900;6.346;2023-04-01T01:53:17;12.07;;;7.70;;
65358;SDS011;52491;45.900;6.346;2023-04-01T01:55:44;10.90;;;8.90;;
65358;SDS011;52491;45.900;6.346;2023-04-01T01:58:13;11.35;;;8.35;;
65358;SDS011;52491;45.900;6.346;2023-04-01T02:00:55;11.57;;;8.20;;
65358;SDS011;52491;45.900;6.346;2023-04-01T02:03:24;9.30;;;7.60;;
65358;SDS011;52491;45.900;6.346;2023-04-01T02:05:53;9.95;;;7.80;;
65358;SDS011;52491;45.900;6.346;2023-04-01T02:08:26;10.18;;;7.95;;
65358;SDS011;52491;45.900;6.346;2023-04-01T02:10:57;9.88;;;7.80;;
65358;SDS011;52491;45.900;6.346;2023-04-01T02:13:52;9.63;;;7.13;;
65358;SDS011;52491;45.900;6.346;2023-04-01T02:16:29;11.25;;;7.97;;
65358;SDS011;52491;45.900;6.346;2023-04-01T02:19:10;7.95;;;6.50;;
65358;SDS011;52491;45.900;6.346;2023-04-01T02:21:39;9.25;;;6.95;;
65358;SDS011;52491;45.900;6.346;2023-04-01T02:24:08;10.18;;;7.57;;
65358;SDS011;52491;45.900;6.346;2023-04-01T02:26:38;10.10;;;7.10;;
65358;SDS011;52491;45.900;6.346;2023-04-01T02:29:05;8.88;;;6.18;;
65358;SDS011;52491;45.900;6.346;2023-04-01T02:31:32;7.90;;;5.78;;
65358;SDS011;52491;45.900;6.346;2023-04-01T02:33:58;8.07;;;6.47;;
65358;SDS011;52491;45.900;6.346;2023-04-01T02:36:24;7.20;;;6.35;;
65358;SDS011;52491;45.900;6.346;2023-04-01T02:38:50;7.85;;;6.15;;
65358;SDS011;52491;45.900;6.346;2023-04-01T02:41:20;7.70;;;5.40;;
65358;SDS011;52491;45.900;6.346;2023-04-01T02:43:47;8.95;;;6.18;;
65358;SDS011;52491;45.900;6.346;2023-04-01T02:46:14;7.03;;;5.72;;
65358;SDS011;52491;45.900;6.346;2023-04-01T02:48:39;8.30;;;6.30;;
65358;SDS011;52491;45.900;6.346;2023-04-01T02:51:05;8.40;;;5.63;;
65358;SDS011;52491;45.900;6.346;2023-04-01T02:53:31;8.48;;;6.38;;
65358;SDS011;52491;45.900;6.346;2023-04-01T02:55:56;11.40;;;5.75;;
65358;SDS011;52491;45.900;6.346;2023-04-01T02:58:22;8.07;;;6.47;;
65358;SDS011;52491;45.900;6.346;2023-04-01T03:00:48;8.23;;;5.88;;
65358;SDS011;52491;45.900;6.346;2023-04-01T03:03:13;9.02;;;5.25;;
65358;SDS011;52491;45.900;6.346;2023-04-01T03:05:40;9.68;;;5.30;;
65358;SDS011;52491;45.900;6.346;2023-04-01T03:08:06;7.28;;;5.30;;
65358;SDS011;52491;45.900;6.346;2023-04-01T03:10:32;7.75;;;6.00;;
65358;SDS011;52491;45.900;6.346;2023-04-01T03:12:58;9.85;;;5.40;;
65358;SDS011;52491;45.900;6.346;2023-04-01T03:15:23;9.40;;;4.72;;
65358;SDS011;52491;45.900;6.346;2023-04-01T03:17:49;8.00;;;5.00;;
65358;SDS011;52491;45.900;6.346;2023-04-01T03:20:15;5.82;;;4.80;;
65358;SDS011;52491;45.900;6.346;2023-04-01T03:22:41;7.63;;;4.45;;
65358;SDS011;52491;45.900;6.346;2023-04-01T03:25:06;11.15;;;5.00;;
65358;SDS011;52491;45.900;6.346;2023-04-01T03:27:33;5.28;;;3.90;;
65358;SDS011;52491;45.900;6.346;2023-04-01T03:30:00;6.65;;;4.30;;
65358;SDS011;52491;45.900;6.346;2023-04-01T03:32:27;5.57;;;4.60;;
65358;SDS011;52491;45.900;6.346;2023-04-01T03:34:53;8.85;;;4.45;;
65358;SDS011;52491;45.900;6.346;2023-04-01T03:37:19;4.53;;;3.63;;
65358;SDS011;52491;45.900;6.346;2023-04-01T03:39:46;8.77;;;4.35;;
65358;SDS011;52491;45.900;6.346;2023-04-01T03:42:11;6.40;;;4.32;;
65358;SDS011;52491;45.900;6.346;2023-04-01T03:44:37;5.53;;;3.58;;
65358;SDS011;52491;45.900;6.346;2023-04-01T03:47:02;8.15;;;4.35;;
65358;SDS011;52491;45.900;6.346;2023-04-01T03:49:28;6.43;;;4.43;;
65358;SDS011;52491;45.900;6.346;2023-04-01T03:51:54;7.28;;;3.72;;
65358;SDS011;52491;45.900;6.346;2023-04-01T03:54:20;4.57;;;4.10;;
65358;SDS011;52491;45.900;6.346;2023-04-01T03:56:46;5.30;;;3.47;;
65358;SDS011;52491;45.900;6.346;2023-04-01T03:59:11;4.70;;;3.47;;
65358;SDS011;52491;45.900;6.346;2023-04-01T04:01:37;5.97;;;3.40;;
65358;SDS011;52491;45.900;6.346;2023-04-01T04:04:03;5.88;;;3.78;;
65358;SDS011;52491;45.900;6.346;2023-04-01T04:06:29;5.28;;;3.75;;
65358;SDS011;52491;45.900;6.346;2023-04-01T04:08:55;4.68;;;3.85;;
65358;SDS011;52491;45.900;6.346;2023-04-01T04:11:21;6.25;;;3.35;;
65358;SDS011;52491;45.900;6.346;2023-04-01T04:13:47;4.53;;;3.03;;
65358;SDS011;52491;45.900;6.346;2023-04-01T04:16:15;5.75;;;3.30;;
65358;SDS011;52491;45.900;6.346;2023-04-01T04:18:41;3.65;;;3.22;;
65358;SDS011;52491;45.900;6.346;2023-04-01T04:21:10;4.22;;;3.47;;
65358;SDS011;52491;45.900;6.346;2023-04-01T04:23:37;4.68;;;3.08;;
65358;SDS011;52491;45.900;6.346;2023-04-01T04:26:04;4.45;;;3.38;;
65358;SDS011;52491;45.900;6.346;2023-04-01T04:28:32;4.68;;;3.53;;
65358;SDS011;52491;45.900;6.346;2023-04-01T04:30:57;6.97;;;3.58;;
65358;SDS011;52491;45.900;6.346;2023-04-01T04:33:23;4.70;;;3.10;;
65358;SDS011;52491;45.900;6.346;2023-04-01T04:35:50;2.88;;;2.15;;
65358;SDS011;52491;45.900;6.346;2023-04-01T04:38:16;5.32;;;2.53;;
65358;SDS011;52491;45.900;6.346;2023-04-01T04:40:42;4.88;;;2.95;;
65358;SDS011;52491;45.900;6.346;2023-04-01T04:43:12;4.32;;;3.15;;
65358;SDS011;52491;45.900;6.346;2023-04-01T04:45:40;4.35;;;3.10;;
65358;SDS011;52491;45.900;6.346;2023-04-01T04:48:09;3.05;;;2.72;;
65358;SDS011;52491;45.900;6.346;2023-04-01T04:50:39;4.05;;;3.10;;
65358;SDS011;52491;45.900;6.346;2023-04-01T04:53:05;3.38;;;2.75;;
65358;SDS011;52491;45.900;6.346;2023-04-01T04:55:31;4.18;;;2.67;;
65358;SDS011;52491;45.900;6.346;2023-04-01T04:57:56;3.45;;;2.72;;
65358;SDS011;52491;45.900;6.346;2023-04-01T05:00:22;2.88;;;2.25;;
65358;SDS011;52491;45.900;6.346;2023-04-01T05:02:47;4.55;;;3.15;;
65358;SDS011;52491;45.900;6.346;2023-04-01T05:05:13;2.85;;;1.88;;
65358;SDS011;52491;45.900;6.346;2023-04-01T05:07:39;3.95;;;2.00;;
65358;SDS011;52491;45.900;6.346;2023-04-01T05:10:04;2.58;;;2.05;;
65358;SDS011;52491;45.900;6.346;2023-04-01T05:12:30;2.95;;;2.08;;
65358;SDS011;52491;45.900;6.346;2023-04-01T05:14:58;4.45;;;2.47;;
65358;SDS011;52491;45.900;6.346;2023-04-01T05:17:24;2.38;;;2.13;;
65358;SDS011;52491;45.900;6.346;2023-04-01T05:19:50;3.80;;;1.75;;
65358;SDS011;52491;45.900;6.346;2023-04-01T05:22:15;4.32;;;2.33;;
65358;SDS011;52491;45.900;6.346;2023-04-01T05:24:41;5.45;;;2.72;;
65358;SDS011;52491;45.900;6.346;2023-04-01T05:27:06;2.42;;;1.88;;
65358;SDS011;52491;45.900;6.346;2023-04-01T05:29:32;2.65;;;1.58;;
65358;SDS011;52491;45.900;6.346;2023-04-01T05:31:57;2.83;;;1.92;;
65358;SDS011;52491;45.900;6.346;2023-04-01T05:34:23;2.28;;;2.03;;
65358;SDS011;52491;45.900;6.346;2023-04-01T05:36:49;1.67;;;1.58;;
65358;SDS011;52491;45.900;6.346;2023-04-01T05:39:15;1.90;;;1.73;;
65358;SDS011;52491;45.900;6.346;2023-04-01T05:41:41;2.95;;;1.85;;
65358;SDS011;52491;45.900;6.346;2023-04-01T05:44:07;1.77;;;1.38;;
65358;SDS011;52491;45.900;6.346;2023-04-01T05:46:37;3.35;;;2.15;;
65358;SDS011;52491;45.900;6.346;2023-04-01T05:49:02;2.20;;;1.70;;
65358;SDS011;52491;45.900;6.346;2023-04-01T05:51:28;2.05;;;1.75;;
65358;SDS011;52491;45.900;6.346;2023-04-01T05:53:54;2.20;;;1.60;;
65358;SDS011;52491;45.900;6.346;2023-04-01T05:56:19;2.78;;;2.20;;
65358;SDS011;52491;45.900;6.346;2023-04-01T05:58:46;3.08;;;1.95;;
65358;SDS011;52491;45.900;6.346;2023-04-01T06:01:16;2.25;;;1.75;;
65358;SDS011;52491;45.900;6.346;2023-04-01T06:03:41;1.88;;;1.73;;
65358;SDS011;52491;45.900;6.346;2023-04-01T06:06:13;2.40;;;1.73;;
65358;SDS011;52491;45.900;6.346;2023-04-01T06:08:40;2.33;;;1.92;;
65358;SDS011;52491;45.900;6.346;2023-04-01T06:14:17;2.17;;;1.25;;
65358;SDS011;52491;45.900;6.346;2023-04-01T06:16:59;3.35;;;1.70;;
65358;SDS011;52491;45.900;6.346;2023-04-01T06:22:35;1.58;;;1.15;;
65358;SDS011;52491;45.900;6.346;2023-04-01T06:25:21;1.65;;;1.42;;
65358;SDS011;52491;45.900;6.346;2023-04-01T06:53:21;3.92;;;1.20;;
65358;SDS011;52491;45.900;6.346;2023-04-01T06:55:57;5.05;;;0.85;;
65358;SDS011;52491;45.900;6.346;2023-04-01T06:58:31;1.30;;;1.15;;
65358;SDS011;52491;45.900;6.346;2023-04-01T07:01:06;4.22;;;1.40;;
65358;SDS011;52491;45.900;6.346;2023-04-01T07:06:30;1.73;;;1.17;;
65358;SDS011;52491;45.900;6.346;2023-04-01T07:08:57;5.63;;;1.33;;
65358;SDS011;52491;45.900;6.346;2023-04-01T07:11:29;2.60;;;1.25;;
65358;SDS011;52491;45.900;6.346;2023-04-01T07:19:48;4.80;;;2.17;;
65358;SDS011;52491;45.900;6.346;2023-04-01T07:25:47;4.97;;;1.83;;
65358;SDS011;52491;45.900;6.346;2023-04-01T07:27:52;5.47;;;2.33;;
65358;SDS011;52491;45.900;6.346;2023-04-01T07:30:23;5.10;;;2.13;;
65358;SDS011;52491;45.900;6.346;2023-04-01T07:35:30;25.17;;;6.57;;
65358;SDS011;52491;45.900;6.346;2023-04-01T07:38:20;16.08;;;5.78;;
65358;SDS011;52491;45.900;6.346;2023-04-01T07:46:10;18.75;;;6.05;;
65358;SDS011;52491;45.900;6.346;2023-04-01T07:49:06;10.10;;;3.63;;
65358;SDS011;52491;45.900;6.346;2023-04-01T07:51:59;14.85;;;5.45;;
65358;SDS011;52491;45.900;6.346;2023-04-01T07:54:37;11.45;;;4.13;;
65358;SDS011;52491;45.900;6.346;2023-04-01T07:57:14;14.75;;;4.40;;
65358;SDS011;52491;45.900;6.346;2023-04-01T08:10:26;12.00;;;4.20;;
65358;SDS011;52491;45.900;6.346;2023-04-01T08:21:57;14.77;;;3.45;;
65358;SDS011;52491;45.900;6.346;2023-04-01T08:24:36;10.05;;;4.00;;
65358;SDS011;52491;45.900;6.346;2023-04-01T08:27:15;11.55;;;3.60;;
65358;SDS011;52491;45.900;6.346;2023-04-01T08:30:04;9.40;;;3.45;;
65358;SDS011;52491;45.900;6.346;2023-04-01T08:32:42;9.25;;;3.97;;
65358;SDS011;52491;45.900;6.346;2023-04-01T08:37:49;9.13;;;3.78;;
65358;SDS011;52491;45.900;6.346;2023-04-01T09:28:19;4.75;;;2.35;;
65358;SDS011;52491;45.900;6.346;2023-04-01T09:44:34;5.90;;;2.47;;
65358;SDS011;52491;45.900;6.346;2023-04-01T10:04:23;13.60;;;2.60;;
65358;SDS011;52491;45.900;6.346;2023-04-01T10:31:47;8.60;;;2.13;;
65358;SDS011;52491;45.900;6.346;2023-04-01T11:17:27;4.25;;;1.35;;
65358;SDS011;52491;45.900;6.346;2023-04-01T11:23:36;2.08;;;1.13;;
65358;SDS011;52491;45.900;6.346;2023-04-01T11:29:03;2.75;;;1.27;;
65358;SDS011;52491;45.900;6.346;2023-04-01T11:37:02;4.32;;;1.50;;
65358;SDS011;52491;45.900;6.346;2023-04-01T11:39:59;6.45;;;1.92;;
65358;SDS011;52491;45.900;6.346;2023-04-01T11:42:53;8.05;;;3.75;;
65358;SDS011;52491;45.900;6.346;2023-04-01T11:45:32;15.75;;;3.90;;
65358;SDS011;52491;45.900;6.346;2023-04-01T11:48:17;11.77;;;4.55;;
65358;SDS011;52491;45.900;6.346;2023-04-01T11:53:44;9.75;;;5.72;;
65358;SDS011;52491;45.900;6.346;2023-04-01T12:10:18;8.13;;;5.93;;
65358;SDS011;52491;45.900;6.346;2023-04-01T12:24:58;7.28;;;5.18;;
65358;SDS011;52491;45.900;6.346;2023-04-01T12:31:02;14.07;;;5.28;;
65358;SDS011;52491;45.900;6.346;2023-04-01T12:35:51;8.35;;;4.05;;
65358;SDS011;52491;45.900;6.346;2023-04-01T12:38:41;9.00;;;5.15;;
65358;SDS011;52491;45.900;6.346;2023-04-01T12:41:09;8.95;;;4.80;;
65358;SDS011;52491;45.900;6.346;2023-04-01T12:52:12;14.40;;;4.10;;
65358;SDS011;52491;45.900;6.346;2023-04-01T13:17:23;4.05;;;2.17;;
65358;SDS011;52491;45.900;6.346;2023-04-01T13:23:09;6.57;;;2.50;;
65358;SDS011;52491;45.900;6.346;2023-04-01T13:26:17;3.85;;;2.35;;
65358;SDS011;52491;45.900;6.346;2023-04-01T13:28:51;3.63;;;2.05;;
65358;SDS011;52491;45.900;6.346;2023-04-01T13:34:06;8.98;;;2.30;;
65358;SDS011;52491;45.900;6.346;2023-04-01T13:53:08;5.38;;;1.70;;
65358;SDS011;52491;45.900;6.346;2023-04-01T13:56:12;11.45;;;1.50;;
65358;SDS011;52491;45.900;6.346;2023-04-01T13:58:46;11.45;;;2.38;;
65358;SDS011;52491;45.900;6.346;2023-04-01T14:04:17;3.45;;;1.67;;
65358;SDS011;52491;45.900;6.346;2023-04-01T14:07:01;5.88;;;1.88;;
65358;SDS011;52491;45.900;6.346;2023-04-01T14:09:41;2.88;;;1.50;;
65358;SDS011;52491;45.900;6.346;2023-04-01T14:14:58;5.80;;;1.77;;
65358;SDS011;52491;45.900;6.346;2023-04-01T14:23:43;8.38;;;1.90;;
65358;SDS011;52491;45.900;6.346;2023-04-01T14:40:05;17.40;;;2.17;;
65358;SDS011;52491;45.900;6.346;2023-04-01T14:48:39;2.75;;;0.55;;
65358;SDS011;52491;45.900;6.346;2023-04-01T14:51:18;1.70;;;0.60;;
65358;SDS011;52491;45.900;6.346;2023-04-01T14:56:51;1.50;;;1.25;;
65358;SDS011;52491;45.900;6.346;2023-04-01T14:59:46;5.65;;;2.88;;
65358;SDS011;52491;45.900;6.346;2023-04-01T15:02:18;1.58;;;1.02;;
65358;SDS011;52491;45.900;6.346;2023-04-01T15:08:12;1.08;;;1.00;;
65358;SDS011;52491;45.900;6.346;2023-04-01T15:27:29;0.50;;;0.47;;
65358;SDS011;52491;45.900;6.346;2023-04-01T15:33:13;3.53;;;0.73;;
65358;SDS011;52491;45.900;6.346;2023-04-01T15:55:37;2.28;;;1.60;;
65358;SDS011;52491;45.900;6.346;2023-04-01T16:01:11;3.22;;;0.85;;
65358;SDS011;52491;45.900;6.346;2023-04-01T16:03:56;1.25;;;0.70;;
65358;SDS011;52491;45.900;6.346;2023-04-01T16:06:36;0.88;;;0.77;;
65358;SDS011;52491;45.900;6.346;2023-04-01T16:25:33;2.00;;;0.60;;
65358;SDS011;52491;45.900;6.346;2023-04-01T16:28:48;2.53;;;1.15;;
65358;SDS011;52491;45.900;6.346;2023-04-01T16:33:38;2.92;;;0.60;;
65358;SDS011;52491;45.900;6.346;2023-04-01T16:41:33;2.22;;;1.23;;
65358;SDS011;52491;45.900;6.346;2023-04-01T16:46:53;4.00;;;0.85;;
65358;SDS011;52491;45.900;6.346;2023-04-01T16:49:31;2.47;;;0.88;;
65358;SDS011;52491;45.900;6.346;2023-04-01T16:54:35;1.30;;;0.52;;
65358;SDS011;52491;45.900;6.346;2023-04-01T17:00:02;1.85;;;1.00;;
65358;SDS011;52491;45.900;6.346;2023-04-01T17:05:09;5.97;;;1.50;;
65358;SDS011;52491;45.900;6.346;2023-04-01T17:10:21;5.88;;;0.73;;
65358;SDS011;52491;45.900;6.346;2023-04-01T17:15:21;3.38;;;0.98;;
65358;SDS011;52491;45.900;6.346;2023-04-01T17:18:08;1.45;;;0.93;;
65358;SDS011;52491;45.900;6.346;2023-04-01T17:20:50;3.45;;;0.98;;
65358;SDS011;52491;45.900;6.346;2023-04-01T17:26:12;2.08;;;0.98;;
65358;SDS011;52491;45.900;6.346;2023-04-01T17:28:50;4.28;;;0.90;;
65358;SDS011;52491;45.900;6.346;2023-04-01T17:34:23;1.55;;;0.60;;
65358;SDS011;52491;45.900;6.346;2023-04-01T17:50:07;2.88;;;0.90;;
65358;SDS011;52491;45.900;6.346;2023-04-01T17:58:20;4.82;;;1.20;;
65358;SDS011;52491;45.900;6.346;2023-04-01T18:01:15;2.00;;;1.08;;
65358;SDS011;52491;45.900;6.346;2023-04-01T18:04:06;4.22;;;1.23;;
65358;SDS011;52491;45.900;6.346;2023-04-01T18:12:40;1.35;;;0.88;;
65358;SDS011;52491;45.900;6.346;2023-04-01T18:29:45;2.55;;;1.27;;
65358;SDS011;52491;45.900;6.346;2023-04-01T18:35:29;1.30;;;1.15;;
65358;SDS011;52491;45.900;6.346;2023-04-01T18:38:31;2.00;;;1.63;;
65358;SDS011;52491;45.900;6.346;2023-04-01T18:41:19;2.00;;;1.50;;
65358;SDS011;52491;45.900;6.346;2023-04-01T18:46:44;1.42;;;1.25;;
65358;SDS011;52491;45.900;6.346;2023-04-01T18:49:21;3.17;;;1.55;;
65358;SDS011;52491;45.900;6.346;2023-04-01T18:51:55;5.50;;;1.85;;
65358;SDS011;52491;45.900;6.346;2023-04-01T18:54:31;1.42;;;1.20;;
65358;SDS011;52491;45.900;6.346;2023-04-01T18:57:13;2.97;;;1.70;;
65358;SDS011;52491;45.900;6.346;2023-04-01T18:59:45;2.05;;;1.63;;
65358;SDS011;52491;45.900;6.346;2023-04-01T19:17:04;1.85;;;1.38;;
65358;SDS011;52491;45.900;6.346;2023-04-01T19:19:46;3.08;;;1.58;;
65358;SDS011;52491;45.900;6.346;2023-04-01T19:34:29;7.55;;;6.20;;
65358;SDS011;52491;45.900;6.346;2023-04-01T19:45:49;4.45;;;4.05;;
65358;SDS011;52491;45.900;6.346;2023-04-01T19:48:37;6.45;;;3.95;;
65358;SDS011;52491;45.900;6.346;2023-04-01T19:56:58;5.28;;;4.25;;
65358;SDS011;52491;45.900;6.346;2023-04-01T20:05:00;3.60;;;2.90;;
65358;SDS011;52491;45.900;6.346;2023-04-01T20:07:51;4.55;;;3.10;;
65358;SDS011;52491;45.900;6.346;2023-04-01T20:10:25;4.35;;;3.80;;
65358;SDS011;52491;45.900;6.346;2023-04-01T20:13:21;5.32;;;3.58;;
65358;SDS011;52491;45.900;6.346;2023-04-01T20:16:11;4.05;;;3.55;;
65358;SDS011;52491;45.900;6.346;2023-04-01T20:18:51;5.63;;;3.40;;
65358;SDS011;52491;45.900;6.346;2023-04-01T20:21:41;7.53;;;3.25;;
65358;SDS011;52491;45.900;6.346;2023-04-01T20:26:39;3.65;;;3.22;;
65358;SDS011;52491;45.900;6.346;2023-04-01T20:35:01;6.05;;;3.40;;
65358;SDS011;52491;45.900;6.346;2023-04-01T20:37:49;5.53;;;3.15;;
65358;SDS011;52491;45.900;6.346;2023-04-01T20:40:34;5.68;;;3.85;;
65358;SDS011;52491;45.900;6.346;2023-04-01T20:46:11;3.58;;;3.25;;
65358;SDS011;52491;45.900;6.346;2023-04-01T20:51:39;3.97;;;3.50;;
65358;SDS011;52491;45.900;6.346;2023-04-01T20:56:57;6.05;;;3.65;;
65358;SDS011;52491;45.900;6.346;2023-04-01T21:10:56;4.68;;;3.33;;
65358;SDS011;52491;45.900;6.346;2023-04-01T21:19:10;5.10;;;3.50;;
65358;SDS011;52491;45.900;6.346;2023-04-01T21:24:34;3.57;;;2.87;;
65358;SDS011;52491;45.900;6.346;2023-04-01T21:27:06;4.47;;;3.92;;
65358;SDS011;52491;45.900;6.346;2023-04-01T21:29:50;3.60;;;2.88;;
65358;SDS011;52491;45.900;6.346;2023-04-01T21:32:42;2.83;;;2.45;;
65358;SDS011;52491;45.900;6.346;2023-04-01T21:35:26;3.78;;;3.47;;
65358;SDS011;52491;45.900;6.346;2023-04-01T21:53:23;4.82;;;4.22;;
65358;SDS011;52491;45.900;6.346;2023-04-01T22:06:52;4.68;;;3.80;;
65358;SDS011;52491;45.900;6.346;2023-04-01T22:09:29;3.38;;;3.08;;
65358;SDS011;52491;45.900;6.346;2023-04-01T22:25:50;4.10;;;3.20;;
65358;SDS011;52491;45.900;6.346;2023-04-01T22:28:24;3.20;;;2.88;;
65358;SDS011;52491;45.900;6.346;2023-04-01T22:30:56;3.53;;;3.05;;
65358;SDS011;52491;45.900;6.346;2023-04-01T22:33:27;5.72;;;2.33;;
65358;SDS011;52491;45.900;6.346;2023-04-01T22:44:04;4.60;;;2.80;;
65358;SDS011;52491;45.900;6.346;2023-04-01T22:46:47;2.75;;;2.45;;
65358;SDS011;52491;45.900;6.346;2023-04-01T22:49:24;3.95;;;2.97;;
65358;SDS011;52491;45.900;6.346;2023-04-01T22:52:05;3.83;;;2.85;;
65358;SDS011;52491;45.900;6.346;2023-04-01T22:54:43;2.80;;;2.53;;
65358;SDS011;52491;45.900;6.346;2023-04-01T22:59:58;3.00;;;2.35;;
65358;SDS011;52491;45.900;6.346;2023-04-01T23:02:35;4.22;;;2.97;;
65358;SDS011;52491;45.900;6.346;2023-04-01T23:05:05;2.92;;;2.42;;
65358;SDS011;52491;45.900;6.346;2023-04-01T23:13:00;3.00;;;2.70;;
65358;SDS011;52491;45.900;6.346;2023-04-01T23:15:28;4.20;;;2.65;;
65358;SDS011;52491;45.900;6.346;2023-04-01T23:28:25;2.63;;;2.22;;
65358;SDS011;52491;45.900;6.346;2023-04-01T23:30:57;2.33;;;2.13;;
65358;SDS011;52491;45.900;6.346;2023-04-01T23:33:23;3.25;;;2.20;;
65358;SDS011;52491;45.900;6.346;2023-04-01T23:36:12;2.58;;;2.35;;
65358;SDS011;52491;45.900;6.346;2023-04-01T23:38:41;3.00;;;2.08;;
65358;SDS011;52491;45.900;6.346;2023-04-01T23:41:18;2.30;;;2.00;;
65358;SDS011;52491;45.900;6.346;2023-04-01T23:44:07;2.00;;;1.80;;
65358;SDS011;52491;45.900;6.346;2023-04-01T23:46:37;2.67;;;2.10;;
65358;SDS011;52491;45.900;6.346;2023-04-01T23:49:04;2.15;;;2.05;;
65358;SDS011;52491;45.900;6.346;2023-04-01T23:51:50;1.95;;;1.80;;
65358;SDS011;52491;45.900;6.346;2023-04-01T23:54:23;2.20;;;2.03;;
65358;SDS011;52491;45.900;6.346;2023-04-01T23:56:55;1.90;;;1.80;;
65358;SDS011;52491;45.900;6.346;2023-04-01T23:59:29;1.50;;;1.33;;
